עמוד ראשי
METAR-TAF:

METAR-TAF

שדות תעופה :

אושואיה, ארגנטינה

קו רוחב: 54-48S, קו אורך: 068-19W, גובה: 16מטר

תצפית מזג אוויר נוכחית

הדו"ח נערך לפני 1 שעות ו 13דקות, בשעה 21:00 UTC
רוח 11קשר מכיוון מערב
טמפרטורת 0 צלסיוס
לחות 86%
לחץ 982 hPa
ראות: 2500מטר
עננים פזורים בגובה 800רגל
מעונן בגובה 1800רגל
שלג קל,

METAR: SAWH 142100Z 27011KT 2500 -SN SCT008 OVC018 M00/M02 Q0982

זמן: 19:13 (22:13 UTC)

תחזית

הדו"ח נערך לפני 5 שעות ו 13דקות, בשעה 17:00 UTC
תחזית בתוקף מ 14 ב 18 UTC עד 15 ב 18 UTC
רוח 10קשר מכיוון דרום-מערב
ראות 10 קילומטר או יותר
מעט עננים בגובה 4500רגל
עננים בינוניים בגובה 6000רגל
יעשה מ
15 ב 00 UTC עד 15 ב 02 UTC
רוח 5קשר עם כיוונים משתנים
ראות 10 קילומטר או יותר
ללא עננים שבסיסם נמוך מ 5000 רגל או קומולונימבוס
יעשה מ
15 ב 15 UTC עד 15 ב 17 UTC
רוח 5קשר מכיוון צפון-מערב
ראות 10 קילומטר או יותר
עננים פזורים בגובה 3000רגל

TAF: SAWH 141700Z 1418/1518 23010KT 9999 FEW045 BKN060 TXM01/1403Z TNM08/1512Z BECMG 1500/1502 VRB05KT CAVOK BECMG 1515/1517 32005KT 9999 SCT030

תצפיות ותחזיות מזג אוויר לגבי יותר מ- 4,000 שדות תעופה ברחבי העולם. דוחות METAR ו- TAF.

התחנות הזמינות מסומנות בנקודות צהובות ואדומות על גבי המפה.

העבר את העכבר לנקודה הצבעונית על מנת לראות את שם התחנה.

לאחר מכן, לחץ כדי לראות את תוכן ואת תחזיות מזג האוויר.

כדי לשנות את המפה: לחץ על הכפתורים הירוקים עם הפלוס השחור כדי להתקרב; על הכפתור הירוק עם המקף כדי להתרחק; או בחיצים הירוקים למפות סמוכות.


METAR-TAF: